Aérodrome :
LOGIN :

S'inscrire | Disclaimer

   EN    FR    IT 

 










Légende :    VFR   VFR Marginal   IFR   IFR Intensif   IFR Très Intensif
Visi : 
Plafond : 
>= 8 km
>= 3000ft
5 à 8 km
1000 à 3000 ft
1500m à 5 km
500 à 1000 ft
800 à 1500m
200 à 500 ft
< 800m
< 200 ft
Symboles :   Orages  Brouillard  Fortes neiges  Fortes précipitations  Vent > 20 kt
SIGMETs :   Divers  Orages  Givrage  Turbulence  Onde Orograph.  Cendres Volcan.






- Altitude de l'aérodrome : 3 ft
- Code IATA : DHR


EHKD - Den Helder De Kooy

DERNIER METAR :
  • 031025Z AUTO 35010KT 290V030 9999 OVC150 19/12 Q1005 BLU 36006KT CAVOK

METARs EXPIRÉS :
  • 030955Z AUTO 36009KT 320V030 9999 OVC150 18/12 Q1005 BLU 36006KT CAVOK
  • 030925Z AUTO 34010KT 290V040 9999 OVC150 18/12 Q1005 BLU 36006KT CAVOK
  • 030855Z AUTO 34009KT 300V040 9999 OVC140 19/12 Q1005 BLU 36006KT CAVOK
  • 030825Z AUTO 35009KT 320V040 9999 OVC150 18/12 Q1006 BLU 36006KT CAVOK
  • 030755Z AUTO 34008KT 300V020 9999 OVC130 18/12 Q1006 BLU 36006KT CAVOK

TAF TAF EHKD
Valide du 03 à 09h jusqu'au 03 à 21h UTC


030832Z 0309/0321 34008KT CAVOK
BECMG 0309/0311 35010G20KT
PROB30
TEMPO 0310/0321 FEW012 SCT020
TEMPO 0315/0321 36013G26KT



MET'MAP, la Météo Aéronautique d'un coup d'oeil ! - Copyright ORBIFLY Décembre 2007 - Disclaimer

ORBIFLY MET'MAP TEAM :

Programmation & Développement : Alexandra Zaïnal
Sur une idée originale de : Baudouin d'Aumeries
Assistance à la programmation : Marc-Olivier Méhu
Soutien technique & logistique : Manuel Goepfert

Contact : metmap@orbifly.com




SOURCES & CREDITS :

   NOAA